sensor_id;sensor_type;location;lat;lon;timestamp;P1;durP1;ratioP1;P2;durP2;ratioP2
15669;SDS011;18524;45.190;5.732;2023-08-21T00:04:34;9.23;;;7.13;;
15669;SDS011;18524;45.190;5.732;2023-08-21T00:09:24;10.27;;;7.20;;
15669;SDS011;18524;45.190;5.732;2023-08-21T00:14:15;11.03;;;7.57;;
15669;SDS011;18524;45.190;5.732;2023-08-21T00:19:05;10.33;;;7.43;;
15669;SDS011;18524;45.190;5.732;2023-08-21T00:23:55;8.70;;;6.93;;
15669;SDS011;18524;45.190;5.732;2023-08-21T00:28:46;12.20;;;6.80;;
15669;SDS011;18524;45.190;5.732;2023-08-21T00:33:36;11.30;;;7.20;;
15669;SDS011;18524;45.190;5.732;2023-08-21T00:38:27;11.77;;;8.10;;
15669;SDS011;18524;45.190;5.732;2023-08-21T00:43:17;12.40;;;8.63;;
15669;SDS011;18524;45.190;5.732;2023-08-21T00:48:08;11.33;;;9.33;;
15669;SDS011;18524;45.190;5.732;2023-08-21T00:52:59;12.50;;;8.87;;
15669;SDS011;18524;45.190;5.732;2023-08-21T00:57:51;13.23;;;8.57;;
15669;SDS011;18524;45.190;5.732;2023-08-21T01:02:42;11.13;;;8.10;;
15669;SDS011;18524;45.190;5.732;2023-08-21T01:07:32;10.77;;;8.93;;
15669;SDS011;18524;45.190;5.732;2023-08-21T01:12:56;10.27;;;8.40;;
15669;SDS011;18524;45.190;5.732;2023-08-21T01:18:12;13.07;;;8.50;;
15669;SDS011;18524;45.190;5.732;2023-08-21T01:23:04;11.37;;;8.90;;
15669;SDS011;18524;45.190;5.732;2023-08-21T01:27:57;10.67;;;7.60;;
15669;SDS011;18524;45.190;5.732;2023-08-21T01:32:54;10.17;;;8.00;;
15669;SDS011;18524;45.190;5.732;2023-08-21T01:37:55;9.40;;;7.43;;
15669;SDS011;18524;45.190;5.732;2023-08-21T01:42:46;9.80;;;7.37;;
15669;SDS011;18524;45.190;5.732;2023-08-21T01:47:36;9.30;;;7.73;;
15669;SDS011;18524;45.190;5.732;2023-08-21T01:52:27;11.37;;;7.27;;
15669;SDS011;18524;45.190;5.732;2023-08-21T01:57:17;10.07;;;7.80;;
15669;SDS011;18524;45.190;5.732;2023-08-21T02:02:08;9.97;;;7.47;;
15669;SDS011;18524;45.190;5.732;2023-08-21T02:06:58;10.30;;;7.30;;
15669;SDS011;18524;45.190;5.732;2023-08-21T02:11:49;11.93;;;7.87;;
15669;SDS011;18524;45.190;5.732;2023-08-21T02:16:39;9.00;;;7.60;;
15669;SDS011;18524;45.190;5.732;2023-08-21T02:21:29;7.80;;;7.00;;
15669;SDS011;18524;45.190;5.732;2023-08-21T02:26:20;8.80;;;7.37;;
15669;SDS011;18524;45.190;5.732;2023-08-21T02:31:10;10.33;;;7.40;;
15669;SDS011;18524;45.190;5.732;2023-08-21T02:36:01;10.27;;;7.00;;
15669;SDS011;18524;45.190;5.732;2023-08-21T02:40:52;10.80;;;7.37;;
15669;SDS011;18524;45.190;5.732;2023-08-21T02:45:43;9.70;;;7.20;;
15669;SDS011;18524;45.190;5.732;2023-08-21T02:50:33;9.73;;;7.37;;
15669;SDS011;18524;45.190;5.732;2023-08-21T02:55:23;10.40;;;7.47;;
15669;SDS011;18524;45.190;5.732;2023-08-21T03:00:14;9.13;;;7.53;;
15669;SDS011;18524;45.190;5.732;2023-08-21T03:05:04;11.73;;;7.70;;
15669;SDS011;18524;45.190;5.732;2023-08-21T03:09:55;9.83;;;7.00;;
15669;SDS011;18524;45.190;5.732;2023-08-21T03:14:46;9.27;;;7.40;;
15669;SDS011;18524;45.190;5.732;2023-08-21T03:19:36;7.97;;;7.17;;
15669;SDS011;18524;45.190;5.732;2023-08-21T03:24:26;8.27;;;7.37;;
15669;SDS011;18524;45.190;5.732;2023-08-21T03:29:17;9.00;;;7.27;;
15669;SDS011;18524;45.190;5.732;2023-08-21T03:34:07;8.57;;;7.07;;
15669;SDS011;18524;45.190;5.732;2023-08-21T03:38:59;9.50;;;7.10;;
15669;SDS011;18524;45.190;5.732;2023-08-21T03:43:50;8.13;;;7.33;;
15669;SDS011;18524;45.190;5.732;2023-08-21T03:48:40;9.33;;;7.20;;
15669;SDS011;18524;45.190;5.732;2023-08-21T03:53:31;12.27;;;6.93;;
15669;SDS011;18524;45.190;5.732;2023-08-21T03:58:21;8.77;;;7.00;;
15669;SDS011;18524;45.190;5.732;2023-08-21T04:03:12;10.17;;;7.03;;
15669;SDS011;18524;45.190;5.732;2023-08-21T04:08:02;9.63;;;7.50;;
15669;SDS011;18524;45.190;5.732;2023-08-21T04:12:53;10.70;;;7.70;;
15669;SDS011;18524;45.190;5.732;2023-08-21T04:17:43;9.93;;;7.33;;
15669;SDS011;18524;45.190;5.732;2023-08-21T04:22:33;8.43;;;6.93;;
15669;SDS011;18524;45.190;5.732;2023-08-21T04:27:24;10.60;;;7.07;;
15669;SDS011;18524;45.190;5.732;2023-08-21T04:32:14;10.67;;;7.50;;
15669;SDS011;18524;45.190;5.732;2023-08-21T04:37:05;7.90;;;6.93;;
15669;SDS011;18524;45.190;5.732;2023-08-21T04:41:55;10.10;;;7.13;;
15669;SDS011;18524;45.190;5.732;2023-08-21T04:46:47;10.70;;;6.70;;
15669;SDS011;18524;45.190;5.732;2023-08-21T04:51:38;8.67;;;6.30;;
15669;SDS011;18524;45.190;5.732;2023-08-21T04:56:29;9.60;;;7.00;;
15669;SDS011;18524;45.190;5.732;2023-08-21T05:01:19;6.67;;;5.97;;
15669;SDS011;18524;45.190;5.732;2023-08-21T05:06:09;9.33;;;7.13;;
15669;SDS011;18524;45.190;5.732;2023-08-21T05:11:00;9.17;;;6.90;;
15669;SDS011;18524;45.190;5.732;2023-08-21T05:15:55;8.47;;;6.80;;
15669;SDS011;18524;45.190;5.732;2023-08-21T05:20:47;9.70;;;6.97;;
15669;SDS011;18524;45.190;5.732;2023-08-21T05:25:38;10.90;;;6.97;;
15669;SDS011;18524;45.190;5.732;2023-08-21T05:30:28;10.73;;;7.20;;
15669;SDS011;18524;45.190;5.732;2023-08-21T05:35:19;7.43;;;6.67;;
15669;SDS011;18524;45.190;5.732;2023-08-21T05:40:09;9.30;;;7.03;;
15669;SDS011;18524;45.190;5.732;2023-08-21T05:45:00;10.30;;;7.70;;
15669;SDS011;18524;45.190;5.732;2023-08-21T05:49:50;9.33;;;8.37;;
15669;SDS011;18524;45.190;5.732;2023-08-21T05:54:42;10.67;;;7.70;;
15669;SDS011;18524;45.190;5.732;2023-08-21T05:59:33;7.83;;;7.03;;
15669;SDS011;18524;45.190;5.732;2023-08-21T06:04:23;10.10;;;7.33;;
15669;SDS011;18524;45.190;5.732;2023-08-21T06:09:14;9.93;;;7.70;;
15669;SDS011;18524;45.190;5.732;2023-08-21T06:14:07;9.37;;;7.93;;
15669;SDS011;18524;45.190;5.732;2023-08-21T06:18:57;11.10;;;8.13;;
15669;SDS011;18524;45.190;5.732;2023-08-21T06:23:47;10.10;;;7.43;;
15669;SDS011;18524;45.190;5.732;2023-08-21T06:28:38;8.70;;;7.80;;
15669;SDS011;18524;45.190;5.732;2023-08-21T06:33:28;9.63;;;8.13;;
15669;SDS011;18524;45.190;5.732;2023-08-21T06:38:19;8.60;;;7.20;;
15669;SDS011;18524;45.190;5.732;2023-08-21T06:43:09;9.33;;;7.60;;
15669;SDS011;18524;45.190;5.732;2023-08-21T06:47:59;10.40;;;7.40;;
15669;SDS011;18524;45.190;5.732;2023-08-21T06:52:50;9.83;;;7.40;;
15669;SDS011;18524;45.190;5.732;2023-08-21T06:57:40;10.53;;;7.40;;
15669;SDS011;18524;45.190;5.732;2023-08-21T07:02:30;10.03;;;7.17;;
15669;SDS011;18524;45.190;5.732;2023-08-21T07:07:21;8.90;;;7.60;;
15669;SDS011;18524;45.190;5.732;2023-08-21T07:12:11;10.13;;;7.10;;
15669;SDS011;18524;45.190;5.732;2023-08-21T07:17:02;10.97;;;7.80;;
15669;SDS011;18524;45.190;5.732;2023-08-21T07:21:52;9.27;;;7.00;;
15669;SDS011;18524;45.190;5.732;2023-08-21T07:26:42;11.23;;;8.20;;
15669;SDS011;18524;45.190;5.732;2023-08-21T07:31:33;14.60;;;7.27;;
15669;SDS011;18524;45.190;5.732;2023-08-21T07:36:23;10.97;;;7.33;;
15669;SDS011;18524;45.190;5.732;2023-08-21T07:41:14;12.20;;;8.20;;
15669;SDS011;18524;45.190;5.732;2023-08-21T07:46:04;11.63;;;8.13;;
15669;SDS011;18524;45.190;5.732;2023-08-21T07:50:55;9.20;;;7.37;;
15669;SDS011;18524;45.190;5.732;2023-08-21T07:55:46;8.37;;;7.37;;
15669;SDS011;18524;45.190;5.732;2023-08-21T08:00:37;9.10;;;7.43;;
15669;SDS011;18524;45.190;5.732;2023-08-21T08:05:29;9.47;;;7.87;;
15669;SDS011;18524;45.190;5.732;2023-08-21T08:10:19;7.97;;;7.17;;
15669;SDS011;18524;45.190;5.732;2023-08-21T08:15:09;9.97;;;7.90;;
15669;SDS011;18524;45.190;5.732;2023-08-21T08:20:00;8.60;;;7.40;;
15669;SDS011;18524;45.190;5.732;2023-08-21T08:24:50;8.43;;;7.40;;
15669;SDS011;18524;45.190;5.732;2023-08-21T08:29:40;7.97;;;7.27;;
15669;SDS011;18524;45.190;5.732;2023-08-21T08:34:31;8.27;;;7.30;;
15669;SDS011;18524;45.190;5.732;2023-08-21T08:39:21;11.33;;;7.40;;
15669;SDS011;18524;45.190;5.732;2023-08-21T08:44:12;10.53;;;7.13;;
15669;SDS011;18524;45.190;5.732;2023-08-21T08:49:05;9.63;;;7.57;;
15669;SDS011;18524;45.190;5.732;2023-08-21T08:53:55;9.37;;;6.97;;
15669;SDS011;18524;45.190;5.732;2023-08-21T08:58:49;8.97;;;7.17;;
15669;SDS011;18524;45.190;5.732;2023-08-21T09:03:39;10.60;;;7.20;;
15669;SDS011;18524;45.190;5.732;2023-08-21T09:08:29;11.00;;;7.23;;
15669;SDS011;18524;45.190;5.732;2023-08-21T09:13:20;9.40;;;7.23;;
15669;SDS011;18524;45.190;5.732;2023-08-21T09:18:10;8.73;;;7.27;;
15669;SDS011;18524;45.190;5.732;2023-08-21T09:23:01;9.23;;;7.13;;
15669;SDS011;18524;45.190;5.732;2023-08-21T09:27:52;8.53;;;6.70;;
15669;SDS011;18524;45.190;5.732;2023-08-21T09:32:54;8.60;;;6.77;;
15669;SDS011;18524;45.190;5.732;2023-08-21T09:37:50;8.80;;;6.50;;
15669;SDS011;18524;45.190;5.732;2023-08-21T09:42:43;7.73;;;7.03;;
15669;SDS011;18524;45.190;5.732;2023-08-21T09:47:33;8.43;;;6.73;;
15669;SDS011;18524;45.190;5.732;2023-08-21T09:52:23;10.53;;;6.50;;
15669;SDS011;18524;45.190;5.732;2023-08-21T09:57:14;8.37;;;6.27;;
15669;SDS011;18524;45.190;5.732;2023-08-21T10:02:06;9.40;;;6.40;;
15669;SDS011;18524;45.190;5.732;2023-08-21T10:06:58;7.93;;;6.20;;
15669;SDS011;18524;45.190;5.732;2023-08-21T10:11:53;9.00;;;6.23;;
15669;SDS011;18524;45.190;5.732;2023-08-21T10:16:46;8.80;;;6.30;;
15669;SDS011;18524;45.190;5.732;2023-08-21T10:21:37;8.10;;;6.50;;
15669;SDS011;18524;45.190;5.732;2023-08-21T10:26:27;7.30;;;6.60;;
15669;SDS011;18524;45.190;5.732;2023-08-21T10:32:00;8.83;;;6.50;;
15669;SDS011;18524;45.190;5.732;2023-08-21T10:41:32;8.50;;;6.63;;
15669;SDS011;18524;45.190;5.732;2023-08-21T10:46:26;7.07;;;6.30;;
15669;SDS011;18524;45.190;5.732;2023-08-21T10:51:17;8.77;;;7.00;;
15669;SDS011;18524;45.190;5.732;2023-08-21T10:56:07;10.10;;;7.00;;
15669;SDS011;18524;45.190;5.732;2023-08-21T11:01:01;10.17;;;6.97;;
15669;SDS011;18524;45.190;5.732;2023-08-21T11:06:01;7.77;;;6.63;;
15669;SDS011;18524;45.190;5.732;2023-08-21T11:10:52;8.30;;;6.67;;
15669;SDS011;18524;45.190;5.732;2023-08-21T11:15:44;8.27;;;6.53;;
15669;SDS011;18524;45.190;5.732;2023-08-21T11:20:35;9.37;;;7.03;;
15669;SDS011;18524;45.190;5.732;2023-08-21T11:25:26;8.20;;;7.40;;
15669;SDS011;18524;45.190;5.732;2023-08-21T11:30:17;7.67;;;6.97;;
15669;SDS011;18524;45.190;5.732;2023-08-21T11:35:07;10.13;;;7.50;;
15669;SDS011;18524;45.190;5.732;2023-08-21T11:39:59;8.67;;;7.33;;
15669;SDS011;18524;45.190;5.732;2023-08-21T11:44:50;8.23;;;7.43;;
15669;SDS011;18524;45.190;5.732;2023-08-21T11:49:42;7.97;;;7.13;;
15669;SDS011;18524;45.190;5.732;2023-08-21T11:54:34;8.53;;;7.20;;
15669;SDS011;18524;45.190;5.732;2023-08-21T11:59:26;7.17;;;6.57;;
15669;SDS011;18524;45.190;5.732;2023-08-21T12:04:18;10.80;;;7.33;;
15669;SDS011;18524;45.190;5.732;2023-08-21T12:09:08;8.77;;;6.87;;
15669;SDS011;18524;45.190;5.732;2023-08-21T12:13:59;8.57;;;6.73;;
15669;SDS011;18524;45.190;5.732;2023-08-21T12:18:49;8.83;;;7.13;;
15669;SDS011;18524;45.190;5.732;2023-08-21T12:23:41;7.67;;;6.97;;
15669;SDS011;18524;45.190;5.732;2023-08-21T12:28:31;7.67;;;6.97;;
15669;SDS011;18524;45.190;5.732;2023-08-21T12:33:21;10.20;;;7.23;;
15669;SDS011;18524;45.190;5.732;2023-08-21T12:38:12;7.60;;;6.77;;
15669;SDS011;18524;45.190;5.732;2023-08-21T12:43:02;7.90;;;7.20;;
15669;SDS011;18524;45.190;5.732;2023-08-21T12:47:53;12.40;;;7.67;;
15669;SDS011;18524;45.190;5.732;2023-08-21T12:52:43;9.17;;;7.07;;
15669;SDS011;18524;45.190;5.732;2023-08-21T12:57:34;11.23;;;7.27;;
15669;SDS011;18524;45.190;5.732;2023-08-21T13:02:24;10.63;;;6.53;;
15669;SDS011;18524;45.190;5.732;2023-08-21T13:07:17;9.07;;;7.03;;
15669;SDS011;18524;45.190;5.732;2023-08-21T13:12:08;7.83;;;7.03;;
15669;SDS011;18524;45.190;5.732;2023-08-21T13:16:58;7.70;;;6.67;;
15669;SDS011;18524;45.190;5.732;2023-08-21T13:21:48;6.97;;;5.80;;
15669;SDS011;18524;45.190;5.732;2023-08-21T13:26:39;6.40;;;5.80;;
15669;SDS011;18524;45.190;5.732;2023-08-21T13:31:29;8.83;;;5.50;;
15669;SDS011;18524;45.190;5.732;2023-08-21T13:36:20;5.47;;;4.97;;
15669;SDS011;18524;45.190;5.732;2023-08-21T13:41:11;7.30;;;4.90;;
15669;SDS011;18524;45.190;5.732;2023-08-21T13:46:02;6.90;;;5.63;;
15669;SDS011;18524;45.190;5.732;2023-08-21T13:50:55;5.80;;;5.30;;
15669;SDS011;18524;45.190;5.732;2023-08-21T13:55:46;5.57;;;5.07;;
15669;SDS011;18524;45.190;5.732;2023-08-21T14:00:36;6.63;;;5.90;;
15669;SDS011;18524;45.190;5.732;2023-08-21T14:05:27;6.57;;;5.40;;
15669;SDS011;18524;45.190;5.732;2023-08-21T14:10:17;9.80;;;6.10;;
15669;SDS011;18524;45.190;5.732;2023-08-21T14:15:08;6.53;;;5.93;;
15669;SDS011;18524;45.190;5.732;2023-08-21T14:19:59;6.87;;;5.63;;
15669;SDS011;18524;45.190;5.732;2023-08-21T14:24:49;6.77;;;6.10;;
15669;SDS011;18524;45.190;5.732;2023-08-21T14:29:39;5.97;;;5.50;;
15669;SDS011;18524;45.190;5.732;2023-08-21T14:34:30;8.27;;;5.43;;
15669;SDS011;18524;45.190;5.732;2023-08-21T14:39:20;6.80;;;5.27;;
15669;SDS011;18524;45.190;5.732;2023-08-21T14:44:10;5.80;;;5.13;;
15669;SDS011;18524;45.190;5.732;2023-08-21T14:49:01;7.67;;;5.30;;
15669;SDS011;18524;45.190;5.732;2023-08-21T14:53:51;5.83;;;5.17;;
15669;SDS011;18524;45.190;5.732;2023-08-21T14:58:42;5.77;;;4.90;;
15669;SDS011;18524;45.190;5.732;2023-08-21T15:03:33;5.87;;;5.37;;
15669;SDS011;18524;45.190;5.732;2023-08-21T15:08:23;5.60;;;5.10;;
15669;SDS011;18524;45.190;5.732;2023-08-21T15:13:14;5.30;;;4.80;;
15669;SDS011;18524;45.190;5.732;2023-08-21T15:18:04;7.33;;;4.93;;
15669;SDS011;18524;45.190;5.732;2023-08-21T15:22:55;6.47;;;4.63;;
15669;SDS011;18524;45.190;5.732;2023-08-21T15:27:45;5.17;;;4.67;;
15669;SDS011;18524;45.190;5.732;2023-08-21T15:32:35;4.90;;;4.50;;
15669;SDS011;18524;45.190;5.732;2023-08-21T15:37:26;5.30;;;4.80;;
15669;SDS011;18524;45.190;5.732;2023-08-21T15:42:16;5.80;;;4.90;;
15669;SDS011;18524;45.190;5.732;2023-08-21T15:47:07;5.13;;;4.33;;
15669;SDS011;18524;45.190;5.732;2023-08-21T15:51:59;5.57;;;4.80;;
15669;SDS011;18524;45.190;5.732;2023-08-21T15:56:49;4.83;;;4.43;;
15669;SDS011;18524;45.190;5.732;2023-08-21T16:01:39;5.03;;;4.60;;
15669;SDS011;18524;45.190;5.732;2023-08-21T16:06:30;5.03;;;4.53;;
15669;SDS011;18524;45.190;5.732;2023-08-21T16:11:20;4.50;;;4.10;;
15669;SDS011;18524;45.190;5.732;2023-08-21T16:16:10;4.63;;;4.23;;
15669;SDS011;18524;45.190;5.732;2023-08-21T16:21:01;4.47;;;4.07;;
15669;SDS011;18524;45.190;5.732;2023-08-21T16:25:51;5.63;;;4.50;;
15669;SDS011;18524;45.190;5.732;2023-08-21T16:30:41;5.27;;;4.17;;
15669;SDS011;18524;45.190;5.732;2023-08-21T16:35:32;6.50;;;4.20;;
15669;SDS011;18524;45.190;5.732;2023-08-21T16:40:22;5.47;;;4.50;;
15669;SDS011;18524;45.190;5.732;2023-08-21T16:45:14;5.50;;;4.17;;
15669;SDS011;18524;45.190;5.732;2023-08-21T16:50:06;4.50;;;4.10;;
15669;SDS011;18524;45.190;5.732;2023-08-21T16:54:57;5.10;;;4.20;;
15669;SDS011;18524;45.190;5.732;2023-08-21T16:59:47;6.17;;;4.00;;
15669;SDS011;18524;45.190;5.732;2023-08-21T17:04:37;6.50;;;4.30;;
15669;SDS011;18524;45.190;5.732;2023-08-21T17:09:28;4.90;;;4.13;;
15669;SDS011;18524;45.190;5.732;2023-08-21T17:14:19;6.23;;;4.10;;
15669;SDS011;18524;45.190;5.732;2023-08-21T17:19:09;6.13;;;4.10;;
15669;SDS011;18524;45.190;5.732;2023-08-21T17:23:59;5.30;;;4.17;;
15669;SDS011;18524;45.190;5.732;2023-08-21T17:28:50;5.43;;;4.40;;
15669;SDS011;18524;45.190;5.732;2023-08-21T17:33:40;5.20;;;4.70;;
15669;SDS011;18524;45.190;5.732;2023-08-21T17:38:31;4.80;;;4.17;;
15669;SDS011;18524;45.190;5.732;2023-08-21T17:43:21;4.80;;;4.20;;
15669;SDS011;18524;45.190;5.732;2023-08-21T17:48:11;4.83;;;4.30;;
15669;SDS011;18524;45.190;5.732;2023-08-21T17:53:02;5.27;;;4.70;;
15669;SDS011;18524;45.190;5.732;2023-08-21T17:57:52;6.07;;;4.40;;
15669;SDS011;18524;45.190;5.732;2023-08-21T18:02:47;4.77;;;4.40;;
15669;SDS011;18524;45.190;5.732;2023-08-21T18:07:37;6.13;;;4.67;;
15669;SDS011;18524;45.190;5.732;2023-08-21T18:12:28;6.20;;;4.67;;
15669;SDS011;18524;45.190;5.732;2023-08-21T18:17:18;4.67;;;4.20;;
15669;SDS011;18524;45.190;5.732;2023-08-21T18:22:09;5.27;;;4.40;;
15669;SDS011;18524;45.190;5.732;2023-08-21T18:26:59;5.43;;;4.00;;
15669;SDS011;18524;45.190;5.732;2023-08-21T18:31:49;4.90;;;4.40;;
15669;SDS011;18524;45.190;5.732;2023-08-21T18:36:40;6.47;;;4.40;;
15669;SDS011;18524;45.190;5.732;2023-08-21T18:41:31;5.33;;;3.70;;
15669;SDS011;18524;45.190;5.732;2023-08-21T18:46:23;6.10;;;4.13;;
15669;SDS011;18524;45.190;5.732;2023-08-21T18:51:14;4.60;;;4.13;;
15669;SDS011;18524;45.190;5.732;2023-08-21T18:56:04;4.80;;;4.33;;
15669;SDS011;18524;45.190;5.732;2023-08-21T19:00:55;4.60;;;4.20;;
15669;SDS011;18524;45.190;5.732;2023-08-21T19:05:47;4.90;;;4.10;;
15669;SDS011;18524;45.190;5.732;2023-08-21T19:10:37;5.00;;;4.37;;
15669;SDS011;18524;45.190;5.732;2023-08-21T19:15:28;4.20;;;3.80;;
15669;SDS011;18524;45.190;5.732;2023-08-21T19:20:18;4.23;;;3.83;;
15669;SDS011;18524;45.190;5.732;2023-08-21T19:25:10;5.40;;;4.07;;
15669;SDS011;18524;45.190;5.732;2023-08-21T19:30:01;5.27;;;4.03;;
15669;SDS011;18524;45.190;5.732;2023-08-21T19:34:55;5.07;;;4.53;;
15669;SDS011;18524;45.190;5.732;2023-08-21T19:39:46;4.50;;;4.10;;
15669;SDS011;18524;45.190;5.732;2023-08-21T19:44:37;5.00;;;4.53;;
15669;SDS011;18524;45.190;5.732;2023-08-21T19:49:28;4.70;;;4.00;;
15669;SDS011;18524;45.190;5.732;2023-08-21T19:54:19;5.50;;;4.20;;
15669;SDS011;18524;45.190;5.732;2023-08-21T19:59:09;6.17;;;5.00;;
15669;SDS011;18524;45.190;5.732;2023-08-21T20:04:00;5.37;;;4.57;;
15669;SDS011;18524;45.190;5.732;2023-08-21T20:08:50;5.57;;;4.37;;
15669;SDS011;18524;45.190;5.732;2023-08-21T20:13:41;4.90;;;4.50;;
15669;SDS011;18524;45.190;5.732;2023-08-21T20:18:31;8.13;;;4.97;;
15669;SDS011;18524;45.190;5.732;2023-08-21T20:23:21;4.70;;;4.30;;
15669;SDS011;18524;45.190;5.732;2023-08-21T20:28:12;6.10;;;5.00;;
15669;SDS011;18524;45.190;5.732;2023-08-21T20:33:03;5.77;;;4.80;;
15669;SDS011;18524;45.190;5.732;2023-08-21T20:37:53;6.27;;;5.00;;
15669;SDS011;18524;45.190;5.732;2023-08-21T20:42:44;7.37;;;5.13;;
15669;SDS011;18524;45.190;5.732;2023-08-21T20:47:34;5.43;;;4.93;;
15669;SDS011;18524;45.190;5.732;2023-08-21T20:52:26;5.87;;;5.30;;
15669;SDS011;18524;45.190;5.732;2023-08-21T20:57:16;6.27;;;5.57;;
15669;SDS011;18524;45.190;5.732;2023-08-21T21:02:06;6.10;;;5.47;;
15669;SDS011;18524;45.190;5.732;2023-08-21T21:06:58;7.33;;;5.53;;
15669;SDS011;18524;45.190;5.732;2023-08-21T21:11:48;5.77;;;5.17;;
15669;SDS011;18524;45.190;5.732;2023-08-21T21:16:39;6.53;;;5.10;;
15669;SDS011;18524;45.190;5.732;2023-08-21T21:21:29;6.83;;;5.40;;
15669;SDS011;18524;45.190;5.732;2023-08-21T21:26:19;6.13;;;5.20;;
15669;SDS011;18524;45.190;5.732;2023-08-21T21:31:10;5.60;;;5.10;;
15669;SDS011;18524;45.190;5.732;2023-08-21T21:36:00;7.47;;;5.33;;
15669;SDS011;18524;45.190;5.732;2023-08-21T21:40:56;5.90;;;4.90;;
15669;SDS011;18524;45.190;5.732;2023-08-21T21:45:53;7.60;;;4.93;;
15669;SDS011;18524;45.190;5.732;2023-08-21T21:50:46;5.37;;;4.90;;
15669;SDS011;18524;45.190;5.732;2023-08-21T21:55:36;5.80;;;5.30;;
15669;SDS011;18524;45.190;5.732;2023-08-21T22:00:26;7.03;;;5.57;;
15669;SDS011;18524;45.190;5.732;2023-08-21T22:05:17;6.97;;;5.87;;
15669;SDS011;18524;45.190;5.732;2023-08-21T22:10:07;5.90;;;5.40;;
15669;SDS011;18524;45.190;5.732;2023-08-21T22:14:58;5.87;;;5.37;;
15669;SDS011;18524;45.190;5.732;2023-08-21T22:19:48;6.13;;;5.63;;
15669;SDS011;18524;45.190;5.732;2023-08-21T22:24:38;5.80;;;5.30;;
15669;SDS011;18524;45.190;5.732;2023-08-21T22:29:29;6.90;;;5.33;;
15669;SDS011;18524;45.190;5.732;2023-08-21T22:34:19;7.73;;;5.30;;
15669;SDS011;18524;45.190;5.732;2023-08-21T22:39:09;6.50;;;5.40;;
15669;SDS011;18524;45.190;5.732;2023-08-21T22:44:00;6.67;;;5.50;;
15669;SDS011;18524;45.190;5.732;2023-08-21T22:48:50;6.43;;;5.83;;
15669;SDS011;18524;45.190;5.732;2023-08-21T22:53:41;6.50;;;5.40;;
15669;SDS011;18524;45.190;5.732;2023-08-21T22:58:31;5.80;;;5.33;;
15669;SDS011;18524;45.190;5.732;2023-08-21T23:03:22;7.70;;;4.90;;
15669;SDS011;18524;45.190;5.732;2023-08-21T23:08:12;5.40;;;4.90;;
15669;SDS011;18524;45.190;5.732;2023-08-21T23:13:02;5.73;;;5.00;;
15669;SDS011;18524;45.190;5.732;2023-08-21T23:17:53;6.53;;;5.00;;
15669;SDS011;18524;45.190;5.732;2023-08-21T23:22:44;5.27;;;4.87;;
15669;SDS011;18524;45.190;5.732;2023-08-21T23:27:34;6.27;;;5.27;;
15669;SDS011;18524;45.190;5.732;2023-08-21T23:32:24;5.63;;;4.90;;
15669;SDS011;18524;45.190;5.732;2023-08-21T23:37:15;5.40;;;4.90;;
15669;SDS011;18524;45.190;5.732;2023-08-21T23:42:05;8.60;;;5.13;;
15669;SDS011;18524;45.190;5.732;2023-08-21T23:46:56;8.27;;;4.97;;
15669;SDS011;18524;45.190;5.732;2023-08-21T23:51:46;5.60;;;5.03;;
15669;SDS011;18524;45.190;5.732;2023-08-21T23:56:37;5.47;;;5.00;;
